createdAt,value
2018-08-31T17:03:22.838Z,1.50
2018-08-31T17:05:50.507Z,1.40
2018-08-31T17:08:18.263Z,1.60
2018-08-31T17:10:45.926Z,1.30
2018-08-31T17:13:13.602Z,1.47
2018-08-31T17:15:41.408Z,1.45
2018-08-31T17:18:09.124Z,1.90
2018-08-31T17:20:36.756Z,1.70
2018-08-31T17:23:04.531Z,1.70
2018-08-31T17:25:32.338Z,1.60
2018-08-31T17:28:05.800Z,1.50
2018-08-31T17:30:33.561Z,1.40
2018-08-31T17:33:06.948Z,1.25
2018-08-31T17:35:40.476Z,1.57
2018-08-31T17:38:08.196Z,1.40
2018-08-31T17:40:35.936Z,1.50
2018-08-31T17:43:03.670Z,1.50
2018-08-31T17:45:31.332Z,1.90
2018-08-31T17:47:59.102Z,1.37
2018-08-31T17:50:26.817Z,1.57
2018-08-31T17:52:54.728Z,1.50
2018-08-31T17:55:22.406Z,1.85
2018-08-31T17:57:50.815Z,1.80
2018-08-31T18:00:18.700Z,1.50
2018-08-31T18:02:46.426Z,1.90
2018-08-31T18:05:14.078Z,1.50
2018-08-31T18:07:41.872Z,1.40
2018-08-31T18:10:09.606Z,1.77
2018-08-31T18:12:37.292Z,1.57
2018-08-31T18:15:05.112Z,1.42
2018-08-31T18:17:32.952Z,1.90
2018-08-31T18:20:00.916Z,1.75
2018-08-31T18:22:28.592Z,1.60
2018-08-31T18:24:56.341Z,1.80
2018-08-31T18:27:24.109Z,1.70
2018-08-31T18:29:51.774Z,1.67
2018-08-31T18:32:19.999Z,1.55
2018-08-31T18:34:47.721Z,1.70
2018-08-31T18:37:15.508Z,1.80
2018-08-31T18:39:43.236Z,1.70
2018-08-31T18:42:11.575Z,1.50
2018-08-31T18:44:39.288Z,1.40
2018-08-31T18:47:07.003Z,1.42
2018-08-31T18:49:34.739Z,1.60
2018-08-31T18:52:02.492Z,1.87
2018-08-31T18:54:30.657Z,1.70
2018-08-31T18:56:58.755Z,1.40
2018-08-31T18:59:26.601Z,1.77
2018-08-31T19:01:54.441Z,1.77
2018-08-31T19:04:22.359Z,2.10
2018-08-31T19:06:50.074Z,1.80
2018-08-31T19:09:20.130Z,1.85
2018-08-31T19:11:47.896Z,1.65
2018-08-31T19:14:15.549Z,2.00
2018-08-31T19:16:43.215Z,2.00
2018-08-31T19:19:10.996Z,2.02
2018-08-31T19:21:38.766Z,2.20
2018-08-31T19:24:07.337Z,1.60
2018-08-31T19:26:35.079Z,1.83
2018-08-31T19:29:03.908Z,1.72
2018-08-31T19:31:32.483Z,2.03
2018-08-31T19:34:00.283Z,1.97
2018-08-31T19:36:28.184Z,2.13
2018-08-31T19:38:56.249Z,1.70
2018-08-31T19:41:23.956Z,1.90
2018-08-31T19:43:51.756Z,2.00
2018-08-31T19:46:19.485Z,2.20
2018-08-31T19:48:47.317Z,1.87
2018-08-31T19:51:18.346Z,2.20
2018-08-31T19:53:46.147Z,1.93
2018-08-31T19:56:13.958Z,1.80
2018-08-31T19:58:41.656Z,2.00
2018-08-31T20:01:09.364Z,1.97
2018-08-31T20:03:37.105Z,1.93
2018-08-31T20:06:04.818Z,2.17
2018-08-31T20:08:32.482Z,1.90
2018-08-31T20:11:00.227Z,1.60
2018-08-31T20:13:28.003Z,1.93
2018-08-31T20:15:55.577Z,1.80
2018-08-31T20:18:23.340Z,1.90
2018-08-31T20:20:50.940Z,2.17
2018-08-31T20:23:18.652Z,2.00
2018-08-31T20:25:46.373Z,2.20
2018-08-31T20:28:14.126Z,2.37
2018-08-31T20:30:41.808Z,2.20
2018-08-31T20:33:09.428Z,2.43
2018-08-31T20:35:37.129Z,2.23
2018-08-31T20:38:04.785Z,2.40
2018-08-31T20:40:32.464Z,2.47
2018-08-31T20:43:00.145Z,2.10
2018-08-31T20:45:27.851Z,2.70
2018-08-31T20:47:55.675Z,2.80
2018-08-31T20:50:23.420Z,2.40
2018-08-31T20:52:51.165Z,2.53
2018-08-31T20:55:18.990Z,2.70
2018-08-31T20:57:46.715Z,2.17
2018-08-31T21:00:14.416Z,2.70
2018-08-31T21:02:42.132Z,2.33
2018-08-31T21:05:09.868Z,3.00
2018-08-31T21:07:37.600Z,2.80
2018-08-31T21:10:05.668Z,2.63
2018-08-31T21:12:33.402Z,2.50
2018-08-31T21:15:01.070Z,2.30
2018-08-31T21:17:28.842Z,2.60
2018-08-31T21:19:56.513Z,2.53
2018-08-31T21:22:24.188Z,2.60
2018-08-31T21:24:51.853Z,2.50
2018-08-31T21:27:19.502Z,2.30
2018-08-31T21:29:47.157Z,2.43
2018-08-31T21:32:14.811Z,2.50
2018-08-31T21:34:42.454Z,2.80
2018-08-31T21:37:10.109Z,2.80
2018-08-31T21:39:37.744Z,2.87
2018-08-31T21:42:05.449Z,2.90
2018-08-31T21:44:33.105Z,2.60
2018-08-31T21:47:00.771Z,2.50
2018-08-31T21:49:28.545Z,2.67
2018-08-31T21:51:56.126Z,2.73
2018-08-31T21:54:23.856Z,2.90
2018-08-31T21:56:51.480Z,2.60
2018-08-31T21:59:19.912Z,2.70
2018-08-31T22:01:54.979Z,2.20
2018-08-31T22:04:23.079Z,2.40
2018-08-31T22:06:50.808Z,2.73
2018-08-31T22:09:18.545Z,2.73
2018-08-31T22:11:46.332Z,2.53
2018-08-31T22:14:13.993Z,2.67
2018-08-31T22:16:41.812Z,2.90
2018-08-31T22:19:09.489Z,2.53
2018-08-31T22:21:37.257Z,2.80
2018-08-31T22:24:04.946Z,2.70
2018-08-31T22:26:32.660Z,2.73
2018-08-31T22:29:00.311Z,2.57
2018-08-31T22:31:28.013Z,3.13
2018-08-31T22:33:55.641Z,2.60
2018-08-31T22:36:23.413Z,2.50
2018-08-31T22:38:51.181Z,2.50
2018-08-31T22:41:18.812Z,2.80
2018-08-31T22:43:49.947Z,2.93
2018-08-31T22:46:18.988Z,2.50
2018-08-31T22:48:47.021Z,2.50
2018-08-31T22:51:14.631Z,3.10
2018-08-31T22:53:42.285Z,2.57
2018-08-31T22:56:09.943Z,3.13
2018-08-31T22:58:37.564Z,3.23
2018-08-31T23:01:05.383Z,3.07
2018-08-31T23:03:33.055Z,2.97
2018-08-31T23:06:00.772Z,2.87
2018-08-31T23:08:28.574Z,3.37
2018-08-31T23:10:56.367Z,2.70
2018-08-31T23:13:24.057Z,2.47
2018-08-31T23:15:51.794Z,3.17
2018-08-31T23:18:19.488Z,2.83
2018-08-31T23:20:47.147Z,2.90
2018-08-31T23:23:20.316Z,2.80
2018-08-31T23:25:47.996Z,3.00
2018-08-31T23:28:16.224Z,2.83
2018-08-31T23:30:44.112Z,3.00
2018-08-31T23:33:11.800Z,2.80
2018-08-31T23:35:39.627Z,3.07
2018-08-31T23:38:07.358Z,3.17
2018-08-31T23:40:35.171Z,2.90
2018-08-31T23:43:02.957Z,3.03
2018-08-31T23:45:30.689Z,2.80
2018-08-31T23:47:58.441Z,2.73
2018-08-31T23:50:26.148Z,2.80
2018-08-31T23:52:53.952Z,2.97
2018-08-31T23:55:21.680Z,2.90
2018-08-31T23:57:49.379Z,2.83
